sensor_id;sensor_type;location;lat;lon;timestamp;pressure;altitude;pressure_sealevel;temperature;humidity
72055;BME280;59936;51.490;5.436;2023-04-02T00:08:50;100905.41;;;6.63;95.07
72055;BME280;59936;51.490;5.436;2023-04-02T00:11:29;100905.41;;;6.63;95.18
72055;BME280;59936;51.490;5.436;2023-04-02T00:13:59;100916.19;;;6.62;95.11
72055;BME280;59936;51.490;5.436;2023-04-02T00:16:26;100917.16;;;6.61;95.20
72055;BME280;59936;51.490;5.436;2023-04-02T00:18:55;100919.81;;;6.61;95.20
72055;BME280;59936;51.490;5.436;2023-04-02T00:21:28;100926.97;;;6.60;95.20
72055;BME280;59936;51.490;5.436;2023-04-02T00:23:58;100923.59;;;6.58;95.27
72055;BME280;59936;51.490;5.436;2023-04-02T00:26:31;100935.22;;;6.57;95.30
72055;BME280;59936;51.490;5.436;2023-04-02T00:29:01;100929.91;;;6.57;95.34
72055;BME280;59936;51.490;5.436;2023-04-02T00:31:28;100942.22;;;6.58;95.30
72055;BME280;59936;51.490;5.436;2023-04-02T00:33:55;100943.06;;;6.59;95.26
72055;BME280;59936;51.490;5.436;2023-04-02T00:36:24;100943.19;;;6.57;95.21
72055;BME280;59936;51.490;5.436;2023-04-02T00:38:57;100948.53;;;6.57;95.22
72055;BME280;59936;51.490;5.436;2023-04-02T00:41:25;100946.84;;;6.56;95.28
72055;BME280;59936;51.490;5.436;2023-04-02T00:43:54;100949.63;;;6.55;95.18
72055;BME280;59936;51.490;5.436;2023-04-02T00:46:24;100953.41;;;6.52;95.23
72055;BME280;59936;51.490;5.436;2023-04-02T00:49:07;100962.09;;;6.54;95.13
72055;BME280;59936;51.490;5.436;2023-04-02T00:51:45;100961.50;;;6.51;95.07
72055;BME280;59936;51.490;5.436;2023-04-02T00:54:13;100966.97;;;6.49;94.91
72055;BME280;59936;51.490;5.436;2023-04-02T00:56:45;100973.38;;;6.47;94.89
72055;BME280;59936;51.490;5.436;2023-04-02T00:59:34;100966.81;;;6.41;94.94
72055;BME280;59936;51.490;5.436;2023-04-02T01:04:39;100986.91;;;6.34;94.93
72055;BME280;59936;51.490;5.436;2023-04-02T01:07:09;101001.31;;;6.31;94.80
72055;BME280;59936;51.490;5.436;2023-04-02T01:12:33;101014.16;;;6.26;95.17
72055;BME280;59936;51.490;5.436;2023-04-02T01:15:19;101014.16;;;6.26;95.17
72055;BME280;59936;51.490;5.436;2023-04-02T01:20:50;101019.75;;;6.23;95.09
72055;BME280;59936;51.490;5.436;2023-04-02T01:23:32;101018.91;;;6.23;95.09
72055;BME280;59936;51.490;5.436;2023-04-02T01:26:22;101021.69;;;6.21;95.03
72055;BME280;59936;51.490;5.436;2023-04-02T01:31:24;101032.72;;;6.17;95.04
72055;BME280;59936;51.490;5.436;2023-04-02T01:33:50;101027.41;;;6.17;95.12
72055;BME280;59936;51.490;5.436;2023-04-02T01:39:23;101032.53;;;6.09;95.00
72055;BME280;59936;51.490;5.436;2023-04-02T01:42:14;101036.03;;;6.09;94.91
72055;BME280;59936;51.490;5.436;2023-04-02T01:44:51;101038.81;;;6.08;94.97
72055;BME280;59936;51.490;5.436;2023-04-02T01:47:21;101064.19;;;6.12;94.97
72055;BME280;59936;51.490;5.436;2023-04-02T01:49:47;101064.19;;;6.12;94.97
72055;BME280;59936;51.490;5.436;2023-04-02T01:52:18;101060.69;;;6.11;94.99
72055;BME280;59936;51.490;5.436;2023-04-02T01:54:50;101059.84;;;6.11;94.94
72055;BME280;59936;51.490;5.436;2023-04-02T01:57:17;101071.31;;;6.11;94.95
72055;BME280;59936;51.490;5.436;2023-04-02T01:59:44;101076.75;;;6.10;94.94
72055;BME280;59936;51.490;5.436;2023-04-02T02:02:11;101075.31;;;6.06;94.95
72055;BME280;59936;51.490;5.436;2023-04-02T02:04:38;101083.53;;;6.03;94.85
72055;BME280;59936;51.490;5.436;2023-04-02T02:07:04;101088.44;;;5.98;94.93
72055;BME280;59936;51.490;5.436;2023-04-02T02:09:34;101089.41;;;5.96;94.79
72055;BME280;59936;51.490;5.436;2023-04-02T02:12:01;101095.81;;;5.94;94.66
72055;BME280;59936;51.490;5.436;2023-04-02T02:14:29;101100.53;;;5.90;94.65
72055;BME280;59936;51.490;5.436;2023-04-02T02:16:59;101107.78;;;5.88;94.56
72055;BME280;59936;51.490;5.436;2023-04-02T02:19:35;101114.19;;;5.86;94.66
72055;BME280;59936;51.490;5.436;2023-04-02T02:22:26;101117.94;;;5.83;94.69
72055;BME280;59936;51.490;5.436;2023-04-02T02:24:54;101129.41;;;5.84;94.67
72055;BME280;59936;51.490;5.436;2023-04-02T02:29:59;101132.91;;;5.84;94.38
72055;BME280;59936;51.490;5.436;2023-04-02T02:32:29;101131.47;;;5.80;94.56
72055;BME280;59936;51.490;5.436;2023-04-02T02:35:06;101141.25;;;5.80;94.35
72055;BME280;59936;51.490;5.436;2023-04-02T02:37:39;101149.50;;;5.77;94.71
72055;BME280;59936;51.490;5.436;2023-04-02T02:40:13;101149.50;;;5.77;94.71
72055;BME280;59936;51.490;5.436;2023-04-02T02:42:46;101154.47;;;5.70;94.48
72055;BME280;59936;51.490;5.436;2023-04-02T02:45:17;101163.53;;;5.68;94.68
72055;BME280;59936;51.490;5.436;2023-04-02T02:47:45;101157.50;;;5.66;94.70
72055;BME280;59936;51.490;5.436;2023-04-02T02:50:21;101175.34;;;5.63;94.48
72055;BME280;59936;51.490;5.436;2023-04-02T02:52:53;101177.41;;;5.60;94.51
72055;BME280;59936;51.490;5.436;2023-04-02T02:55:50;101189.00;;;5.59;94.27
72055;BME280;59936;51.490;5.436;2023-04-02T02:58:19;101180.72;;;5.52;94.21
72055;BME280;59936;51.490;5.436;2023-04-02T03:00:48;101191.22;;;5.54;94.37
72055;BME280;59936;51.490;5.436;2023-04-02T03:03:18;101189.63;;;5.51;94.25
72055;BME280;59936;51.490;5.436;2023-04-02T03:05:52;101196.66;;;5.52;94.29
72055;BME280;59936;51.490;5.436;2023-04-02T03:08:38;101204.72;;;5.51;94.40
72055;BME280;59936;51.490;5.436;2023-04-02T03:11:21;101210.88;;;5.51;94.62
72055;BME280;59936;51.490;5.436;2023-04-02T03:13:53;101207.25;;;5.52;94.72
72055;BME280;59936;51.490;5.436;2023-04-02T03:16:26;101217.78;;;5.54;94.79
72055;BME280;59936;51.490;5.436;2023-04-02T03:22:02;101235.63;;;5.52;94.69
72055;BME280;59936;51.490;5.436;2023-04-02T03:24:34;101233.84;;;5.52;94.77
72055;BME280;59936;51.490;5.436;2023-04-02T03:27:08;101240.00;;;5.53;94.81
72055;BME280;59936;51.490;5.436;2023-04-02T03:29:49;101246.25;;;5.52;94.57
72055;BME280;59936;51.490;5.436;2023-04-02T03:32:22;101250.00;;;5.49;94.55
72055;BME280;59936;51.490;5.436;2023-04-02T03:34:56;101259.78;;;5.49;94.32
72055;BME280;59936;51.490;5.436;2023-04-02T03:37:28;101267.13;;;5.45;94.40
72055;BME280;59936;51.490;5.436;2023-04-02T03:40:13;101274.50;;;5.42;94.02
72055;BME280;59936;51.490;5.436;2023-04-02T03:42:50;101274.72;;;5.39;93.95
72055;BME280;59936;51.490;5.436;2023-04-02T03:45:27;101281.00;;;5.38;94.01
72055;BME280;59936;51.490;5.436;2023-04-02T03:48:08;101294.28;;;5.38;94.50
72055;BME280;59936;51.490;5.436;2023-04-02T03:53:14;101303.31;;;5.35;94.57
72055;BME280;59936;51.490;5.436;2023-04-02T03:55:41;101300.69;;;5.35;94.32
72055;BME280;59936;51.490;5.436;2023-04-02T03:58:20;101305.41;;;5.32;94.07
72055;BME280;59936;51.490;5.436;2023-04-02T04:00:57;101308.91;;;5.32;94.04
72055;BME280;59936;51.490;5.436;2023-04-02T04:06:08;101324.00;;;5.32;94.25
72055;BME280;59936;51.490;5.436;2023-04-02T04:08:50;101326.66;;;5.32;93.98
72055;BME280;59936;51.490;5.436;2023-04-02T04:11:22;101327.59;;;5.31;94.26
72055;BME280;59936;51.490;5.436;2023-04-02T04:13:56;101333.75;;;5.31;94.38
72055;BME280;59936;51.490;5.436;2023-04-02T04:16:50;101339.41;;;5.26;94.17
72055;BME280;59936;51.490;5.436;2023-04-02T04:20:03;101351.97;;;5.24;93.90
72055;BME280;59936;51.490;5.436;2023-04-02T04:22:23;101352.53;;;5.17;94.09
72055;BME280;59936;51.490;5.436;2023-04-02T04:24:50;101367.38;;;5.19;93.74
72055;BME280;59936;51.490;5.436;2023-04-02T04:32:57;101387.41;;;5.12;94.26
72055;BME280;59936;51.490;5.436;2023-04-02T04:35:27;101386.91;;;5.07;93.75
72055;BME280;59936;51.490;5.436;2023-04-02T04:37:57;101390.31;;;5.09;93.93
72055;BME280;59936;51.490;5.436;2023-04-02T04:40:30;101403.56;;;5.09;93.95
72055;BME280;59936;51.490;5.436;2023-04-02T04:43:09;101407.19;;;5.08;94.17
72055;BME280;59936;51.490;5.436;2023-04-02T04:45:43;101418.88;;;5.06;94.10
72055;BME280;59936;51.490;5.436;2023-04-02T04:48:17;101418.13;;;5.04;93.95
72055;BME280;59936;51.490;5.436;2023-04-02T04:50:50;101424.50;;;5.01;93.71
72055;BME280;59936;51.490;5.436;2023-04-02T04:53:23;101434.13;;;4.91;92.82
72055;BME280;59936;51.490;5.436;2023-04-02T04:55:54;101434.13;;;4.91;92.82
72055;BME280;59936;51.490;5.436;2023-04-02T04:58:53;101437.59;;;4.91;93.55
72055;BME280;59936;51.490;5.436;2023-04-02T05:01:26;101436.91;;;4.89;93.61
72055;BME280;59936;51.490;5.436;2023-04-02T05:07:14;101453.88;;;4.87;93.76
72055;BME280;59936;51.490;5.436;2023-04-02T05:09:37;101455.69;;;4.86;93.49
72055;BME280;59936;51.490;5.436;2023-04-02T05:14:41;101474.38;;;4.85;93.25
72055;BME280;59936;51.490;5.436;2023-04-02T05:17:29;101481.91;;;4.78;92.84
72055;BME280;59936;51.490;5.436;2023-04-02T05:20:04;101478.53;;;4.76;93.54
72055;BME280;59936;51.490;5.436;2023-04-02T05:25:30;101492.84;;;4.74;93.95
72055;BME280;59936;51.490;5.436;2023-04-02T05:28:10;101491.41;;;4.70;93.50
72055;BME280;59936;51.490;5.436;2023-04-02T05:30:50;101494.28;;;4.67;93.69
72055;BME280;59936;51.490;5.436;2023-04-02T05:33:28;101499.59;;;4.67;94.06
72055;BME280;59936;51.490;5.436;2023-04-02T05:36:02;101507.53;;;4.67;94.15
72055;BME280;59936;51.490;5.436;2023-04-02T05:38:32;101505.00;;;4.65;94.07
72055;BME280;59936;51.490;5.436;2023-04-02T05:41:13;101519.22;;;4.64;93.96
72055;BME280;59936;51.490;5.436;2023-04-02T05:43:45;101521.13;;;4.62;93.66
72055;BME280;59936;51.490;5.436;2023-04-02T05:46:15;101529.94;;;4.63;93.32
72055;BME280;59936;51.490;5.436;2023-04-02T05:48:43;101531.00;;;4.60;92.88
72055;BME280;59936;51.490;5.436;2023-04-02T05:51:16;101535.56;;;4.58;93.28
72055;BME280;59936;51.490;5.436;2023-04-02T05:53:51;101536.19;;;4.62;93.40
72055;BME280;59936;51.490;5.436;2023-04-02T05:56:25;101542.34;;;4.62;93.43
72055;BME280;59936;51.490;5.436;2023-04-02T05:59:14;101548.72;;;4.59;93.28
72055;BME280;59936;51.490;5.436;2023-04-02T06:01:47;101562.81;;;4.60;93.22
72055;BME280;59936;51.490;5.436;2023-04-02T06:04:24;101560.91;;;4.62;93.33
72055;BME280;59936;51.490;5.436;2023-04-02T06:14:39;101583.28;;;4.71;93.66
72055;BME280;59936;51.490;5.436;2023-04-02T06:17:05;101589.22;;;4.74;93.85
72055;BME280;59936;51.490;5.436;2023-04-02T06:19:36;101600.78;;;4.73;93.16
72055;BME280;59936;51.490;5.436;2023-04-02T06:22:21;101600.78;;;4.73;93.16
72055;BME280;59936;51.490;5.436;2023-04-02T06:24:55;101605.06;;;4.63;92.51
72055;BME280;59936;51.490;5.436;2023-04-02T06:27:23;101617.47;;;4.63;93.04
72055;BME280;59936;51.490;5.436;2023-04-02T06:29:52;101623.94;;;4.58;92.88
72055;BME280;59936;51.490;5.436;2023-04-02T06:32:22;101631.34;;;4.53;92.27
72055;BME280;59936;51.490;5.436;2023-04-02T06:34:48;101638.25;;;4.56;92.52
72055;BME280;59936;51.490;5.436;2023-04-02T06:37:25;101638.34;;;4.54;92.78
72055;BME280;59936;51.490;5.436;2023-04-02T06:39:53;101634.94;;;4.52;92.60
72055;BME280;59936;51.490;5.436;2023-04-02T06:42:29;101651.50;;;4.43;91.36
72055;BME280;59936;51.490;5.436;2023-04-02T06:44:56;101669.13;;;4.44;91.89
72055;BME280;59936;51.490;5.436;2023-04-02T06:47:36;101669.13;;;4.44;91.89
72055;BME280;59936;51.490;5.436;2023-04-02T06:50:05;101676.34;;;4.55;92.17
72055;BME280;59936;51.490;5.436;2023-04-02T06:52:51;101676.34;;;4.55;92.17
72055;BME280;59936;51.490;5.436;2023-04-02T06:58:05;101685.06;;;4.70;92.73
72055;BME280;59936;51.490;5.436;2023-04-02T07:00:40;101698.84;;;4.75;92.20
72055;BME280;59936;51.490;5.436;2023-04-02T07:03:13;101698.84;;;4.75;92.20
72055;BME280;59936;51.490;5.436;2023-04-02T07:05:40;101689.28;;;4.59;90.15
72055;BME280;59936;51.490;5.436;2023-04-02T07:08:06;101708.41;;;4.65;91.61
72055;BME280;59936;51.490;5.436;2023-04-02T07:10:32;101720.50;;;4.69;91.81
72055;BME280;59936;51.490;5.436;2023-04-02T07:12:58;101719.03;;;4.65;90.61
72055;BME280;59936;51.490;5.436;2023-04-02T07:15:24;101733.63;;;4.57;90.02
72055;BME280;59936;51.490;5.436;2023-04-02T07:17:50;101733.84;;;4.54;90.13
72055;BME280;59936;51.490;5.436;2023-04-02T07:20:30;101737.44;;;4.53;90.76
72055;BME280;59936;51.490;5.436;2023-04-02T07:22:56;101753.59;;;4.63;90.98
72055;BME280;59936;51.490;5.436;2023-04-02T07:25:23;101753.59;;;4.63;90.98
72055;BME280;59936;51.490;5.436;2023-04-02T07:27:50;101753.81;;;4.60;91.06
72055;BME280;59936;51.490;5.436;2023-04-02T07:30:17;101757.84;;;4.66;91.70
72055;BME280;59936;51.490;5.436;2023-04-02T07:32:46;101762.22;;;4.67;92.26
72055;BME280;59936;51.490;5.436;2023-04-02T07:35:12;101765.34;;;4.46;90.15
72055;BME280;59936;51.490;5.436;2023-04-02T07:37:38;101771.44;;;4.34;89.46
72055;BME280;59936;51.490;5.436;2023-04-02T07:40:07;101787.34;;;4.34;90.76
72055;BME280;59936;51.490;5.436;2023-04-02T07:42:39;101787.34;;;4.34;90.76
72055;BME280;59936;51.490;5.436;2023-04-02T07:45:06;101780.63;;;4.29;90.85
72055;BME280;59936;51.490;5.436;2023-04-02T07:47:32;101778.94;;;4.28;90.90
72055;BME280;59936;51.490;5.436;2023-04-02T07:49:57;101795.91;;;4.25;90.83
72055;BME280;59936;51.490;5.436;2023-04-02T07:52:23;101795.91;;;4.25;90.83
72055;BME280;59936;51.490;5.436;2023-04-02T07:54:49;101793.66;;;4.19;90.19
72055;BME280;59936;51.490;5.436;2023-04-02T07:57:15;101792.41;;;4.24;91.50
72055;BME280;59936;51.490;5.436;2023-04-02T07:59:41;101792.41;;;4.24;89.61
72055;BME280;59936;51.490;5.436;2023-04-02T08:02:17;101814.56;;;4.23;87.63
72055;BME280;59936;51.490;5.436;2023-04-02T08:04:43;101814.56;;;4.23;87.63
72055;BME280;59936;51.490;5.436;2023-04-02T08:07:09;101821.34;;;4.42;90.58
72055;BME280;59936;51.490;5.436;2023-04-02T08:09:35;101823.94;;;4.56;91.04
72055;BME280;59936;51.490;5.436;2023-04-02T08:12:01;101830.25;;;4.68;90.73
72055;BME280;59936;51.490;5.436;2023-04-02T08:14:27;101825.56;;;4.71;90.21
72055;BME280;59936;51.490;5.436;2023-04-02T08:16:54;101830.91;;;4.84;90.68
72055;BME280;59936;51.490;5.436;2023-04-02T08:19:20;101843.03;;;4.88;89.16
72055;BME280;59936;51.490;5.436;2023-04-02T08:21:48;101837.88;;;5.12;90.88
72055;BME280;59936;51.490;5.436;2023-04-02T08:24:14;101844.91;;;5.25;90.12
72055;BME280;59936;51.490;5.436;2023-04-02T08:26:40;101845.63;;;5.15;88.70
72055;BME280;59936;51.490;5.436;2023-04-02T08:29:06;101851.56;;;5.18;89.58
72055;BME280;59936;51.490;5.436;2023-04-02T08:31:32;101854.44;;;5.15;87.74
72055;BME280;59936;51.490;5.436;2023-04-02T08:33:57;101857.44;;;5.23;88.64
72055;BME280;59936;51.490;5.436;2023-04-02T08:36:27;101876.50;;;5.03;87.27
72055;BME280;59936;51.490;5.436;2023-04-02T08:38:54;101879.38;;;5.00;87.81
72055;BME280;59936;51.490;5.436;2023-04-02T08:41:21;101888.72;;;5.06;88.30
72055;BME280;59936;51.490;5.436;2023-04-02T08:46:25;101892.78;;;5.11;87.06
72055;BME280;59936;51.490;5.436;2023-04-02T08:48:57;101894.09;;;5.31;90.41
72055;BME280;59936;51.490;5.436;2023-04-02T08:51:27;101893.44;;;5.40;87.89
72055;BME280;59936;51.490;5.436;2023-04-02T08:53:58;101906.97;;;5.50;89.19
72055;BME280;59936;51.490;5.436;2023-04-02T08:56:29;101908.69;;;5.51;87.45
72055;BME280;59936;51.490;5.436;2023-04-02T08:59:00;101911.50;;;5.35;85.88
72055;BME280;59936;51.490;5.436;2023-04-02T09:02:05;101916.31;;;5.43;87.96
72055;BME280;59936;51.490;5.436;2023-04-02T09:04:39;101923.75;;;5.50;87.73
72055;BME280;59936;51.490;5.436;2023-04-02T09:07:05;101929.94;;;5.63;88.57
72055;BME280;59936;51.490;5.436;2023-04-02T09:09:34;101939.00;;;5.74;87.67
72055;BME280;59936;51.490;5.436;2023-04-02T09:12:03;101939.41;;;5.55;87.36
72055;BME280;59936;51.490;5.436;2023-04-02T09:17:23;101948.81;;;5.46;88.29
72055;BME280;59936;51.490;5.436;2023-04-02T09:20:03;101949.78;;;5.45;87.12
72055;BME280;59936;51.490;5.436;2023-04-02T09:22:32;101962.22;;;5.57;84.74
72055;BME280;59936;51.490;5.436;2023-04-02T09:24:58;101955.03;;;5.72;87.54
72055;BME280;59936;51.490;5.436;2023-04-02T09:27:29;101972.03;;;5.82;86.50
72055;BME280;59936;51.490;5.436;2023-04-02T09:30:06;101977.47;;;5.68;85.65
72055;BME280;59936;51.490;5.436;2023-04-02T09:32:48;101981.19;;;5.91;88.11
72055;BME280;59936;51.490;5.436;2023-04-02T09:35:15;101996.41;;;6.02;89.00
72055;BME280;59936;51.490;5.436;2023-04-02T09:37:42;101996.41;;;6.02;89.00
72055;BME280;59936;51.490;5.436;2023-04-02T09:40:31;101990.47;;;5.98;88.47
72055;BME280;59936;51.490;5.436;2023-04-02T09:43:09;102001.81;;;5.87;87.11
72055;BME280;59936;51.490;5.436;2023-04-02T09:45:35;102002.97;;;5.83;86.32
72055;BME280;59936;51.490;5.436;2023-04-02T09:48:01;102004.28;;;5.78;86.27
72055;BME280;59936;51.490;5.436;2023-04-02T09:50:39;102011.50;;;5.88;87.56
72055;BME280;59936;51.490;5.436;2023-04-02T09:53:27;102008.88;;;6.14;88.83
72055;BME280;59936;51.490;5.436;2023-04-02T09:56:15;102014.06;;;6.15;87.28
72055;BME280;59936;51.490;5.436;2023-04-02T09:58:42;102024.63;;;6.17;87.05
72055;BME280;59936;51.490;5.436;2023-04-02T10:01:26;102027.38;;;6.28;88.45
72055;BME280;59936;51.490;5.436;2023-04-02T10:03:52;102025.03;;;6.36;85.78
72055;BME280;59936;51.490;5.436;2023-04-02T10:06:19;102038.88;;;6.41;86.33
72055;BME280;59936;51.490;5.436;2023-04-02T10:08:46;102049.63;;;6.40;84.97
72055;BME280;59936;51.490;5.436;2023-04-02T10:11:30;102039.81;;;6.27;85.74
72055;BME280;59936;51.490;5.436;2023-04-02T10:14:10;102042.69;;;6.12;84.50
72055;BME280;59936;51.490;5.436;2023-04-02T10:19:51;102042.38;;;6.29;85.62
72055;BME280;59936;51.490;5.436;2023-04-02T10:22:20;102048.34;;;6.20;87.17
72055;BME280;59936;51.490;5.436;2023-04-02T10:24:48;102049.81;;;6.24;86.57
72055;BME280;59936;51.490;5.436;2023-04-02T10:32:54;102057.88;;;5.97;85.27
72055;BME280;59936;51.490;5.436;2023-04-02T10:35:34;102072.56;;;6.03;87.34
72055;BME280;59936;51.490;5.436;2023-04-02T10:38:05;102075.56;;;6.11;84.20
72055;BME280;59936;51.490;5.436;2023-04-02T10:43:41;102085.97;;;6.14;85.85
72055;BME280;59936;51.490;5.436;2023-04-02T10:51:59;102099.38;;;6.25;79.54
72055;BME280;59936;51.490;5.436;2023-04-02T10:54:40;102097.91;;;6.21;82.36
72055;BME280;59936;51.490;5.436;2023-04-02T10:57:39;102092.25;;;6.13;80.04
72055;BME280;59936;51.490;5.436;2023-04-02T11:02:56;102102.03;;;6.25;82.70
72055;BME280;59936;51.490;5.436;2023-04-02T11:05:30;102108.56;;;6.34;82.70
72055;BME280;59936;51.490;5.436;2023-04-02T11:08:02;102107.94;;;6.43;83.68
72055;BME280;59936;51.490;5.436;2023-04-02T11:10:32;102117.28;;;6.48;84.06
72055;BME280;59936;51.490;5.436;2023-04-02T11:16:00;102121.91;;;6.72;84.58
72055;BME280;59936;51.490;5.436;2023-04-02T11:18:31;102130.00;;;6.70;84.07
72055;BME280;59936;51.490;5.436;2023-04-02T11:23:59;102143.41;;;6.94;85.26
72055;BME280;59936;51.490;5.436;2023-04-02T11:29:05;102144.25;;;7.07;82.35
72055;BME280;59936;51.490;5.436;2023-04-02T11:31:33;102154.94;;;7.31;84.21
72055;BME280;59936;51.490;5.436;2023-04-02T11:33:59;102164.13;;;7.14;81.97
72055;BME280;59936;51.490;5.436;2023-04-02T11:39:45;102176.66;;;7.38;84.47
72055;BME280;59936;51.490;5.436;2023-04-02T11:44:43;102172.19;;;7.38;79.14
72055;BME280;59936;51.490;5.436;2023-04-02T11:47:19;102170.00;;;7.56;83.30
72055;BME280;59936;51.490;5.436;2023-04-02T11:52:34;102169.41;;;7.40;71.89
72055;BME280;59936;51.490;5.436;2023-04-02T11:55:16;102169.78;;;7.22;74.70
72055;BME280;59936;51.490;5.436;2023-04-02T12:00:48;102192.66;;;7.38;80.12
72055;BME280;59936;51.490;5.436;2023-04-02T12:06:07;102194.91;;;7.31;78.62
72055;BME280;59936;51.490;5.436;2023-04-02T12:09:25;102206.19;;;7.34;79.33
72055;BME280;59936;51.490;5.436;2023-04-02T12:11:35;102207.03;;;7.48;83.22
72055;BME280;59936;51.490;5.436;2023-04-02T12:16:54;102218.97;;;7.42;78.09
72055;BME280;59936;51.490;5.436;2023-04-02T12:19:21;102218.25;;;7.40;81.33
72055;BME280;59936;51.490;5.436;2023-04-02T12:21:47;102221.31;;;7.47;81.39
72055;BME280;59936;51.490;5.436;2023-04-02T12:24:17;102231.63;;;7.51;83.21
72055;BME280;59936;51.490;5.436;2023-04-02T12:26:44;102227.19;;;7.39;73.70
72055;BME280;59936;51.490;5.436;2023-04-02T12:29:24;102229.75;;;7.41;79.77
72055;BME280;59936;51.490;5.436;2023-04-02T12:31:52;102237.34;;;7.21;71.87
72055;BME280;59936;51.490;5.436;2023-04-02T12:34:20;102242.50;;;7.61;81.84
72055;BME280;59936;51.490;5.436;2023-04-02T12:37:04;102250.03;;;7.80;81.34
72055;BME280;59936;51.490;5.436;2023-04-02T12:39:34;102245.91;;;7.63;80.00
72055;BME280;59936;51.490;5.436;2023-04-02T12:42:00;102245.91;;;7.63;80.46
72055;BME280;59936;51.490;5.436;2023-04-02T12:44:28;102248.47;;;7.52;80.30
72055;BME280;59936;51.490;5.436;2023-04-02T12:46:55;102252.78;;;7.16;80.74
72055;BME280;59936;51.490;5.436;2023-04-02T12:51:56;102262.25;;;6.95;80.79
72055;BME280;59936;51.490;5.436;2023-04-02T12:54:22;102255.13;;;6.83;81.38
72055;BME280;59936;51.490;5.436;2023-04-02T12:56:49;102266.63;;;6.96;82.23
72055;BME280;59936;51.490;5.436;2023-04-02T12:59:33;102264.94;;;7.20;83.47
72055;BME280;59936;51.490;5.436;2023-04-02T13:02:01;102267.50;;;7.22;80.79
72055;BME280;59936;51.490;5.436;2023-04-02T13:04:27;102265.16;;;7.05;79.17
72055;BME280;59936;51.490;5.436;2023-04-02T13:06:54;102276.63;;;6.92;80.84
72055;BME280;59936;51.490;5.436;2023-04-02T13:09:34;102272.16;;;6.93;83.20
72055;BME280;59936;51.490;5.436;2023-04-02T13:12:01;102277.00;;;6.61;75.77
72055;BME280;59936;51.490;5.436;2023-04-02T13:14:28;102280.66;;;6.46;82.54
72055;BME280;59936;51.490;5.436;2023-04-02T13:16:54;102271.75;;;7.37;82.48
72055;BME280;59936;51.490;5.436;2023-04-02T13:19:29;102266.28;;;8.48;78.35
72055;BME280;59936;51.490;5.436;2023-04-02T13:21:58;102270.09;;;8.09;77.28
72055;BME280;59936;51.490;5.436;2023-04-02T13:24:29;102275.03;;;8.50;79.07
72055;BME280;59936;51.490;5.436;2023-04-02T13:26:57;102264.22;;;8.87;78.24
72055;BME280;59936;51.490;5.436;2023-04-02T13:29:26;102264.34;;;9.65;77.59
72055;BME280;59936;51.490;5.436;2023-04-02T13:31:58;102264.34;;;9.65;77.59
72055;BME280;59936;51.490;5.436;2023-04-02T13:34:25;102260.69;;;9.55;74.68
72055;BME280;59936;51.490;5.436;2023-04-02T13:36:51;102251.13;;;9.06;73.27
72055;BME280;59936;51.490;5.436;2023-04-02T13:39:17;102266.09;;;8.62;73.58
72055;BME280;59936;51.490;5.436;2023-04-02T13:41:46;102256.09;;;8.88;74.82
72055;BME280;59936;51.490;5.436;2023-04-02T13:44:25;102255.09;;;9.35;74.64
72055;BME280;59936;51.490;5.436;2023-04-02T13:46:53;102258.00;;;9.88;77.39
72055;BME280;59936;51.490;5.436;2023-04-02T13:49:20;102261.03;;;10.27;76.93
72055;BME280;59936;51.490;5.436;2023-04-02T13:51:48;102264.84;;;10.13;74.63
72055;BME280;59936;51.490;5.436;2023-04-02T13:54:51;102267.47;;;9.81;76.61
72055;BME280;59936;51.490;5.436;2023-04-02T13:57:18;102274.91;;;9.78;76.97
72055;BME280;59936;51.490;5.436;2023-04-02T13:59:44;102273.09;;;9.67;74.45
72055;BME280;59936;51.490;5.436;2023-04-02T14:02:18;102274.78;;;9.23;64.57
72055;BME280;59936;51.490;5.436;2023-04-02T14:04:48;102293.63;;;9.44;68.15
72055;BME280;59936;51.490;5.436;2023-04-02T14:10:02;102291.84;;;10.21;74.66
72055;BME280;59936;51.490;5.436;2023-04-02T14:18:20;102280.72;;;10.69;72.51
72055;BME280;59936;51.490;5.436;2023-04-02T14:23:37;102276.03;;;15.70;60.96
72055;BME280;59936;51.490;5.436;2023-04-02T14:26:16;102276.03;;;15.70;60.96
72055;BME280;59936;51.490;5.436;2023-04-02T14:28:59;102267.34;;;15.58;60.47
72055;BME280;59936;51.490;5.436;2023-04-02T14:31:35;102282.56;;;13.64;64.46
72055;BME280;59936;51.490;5.436;2023-04-02T14:37:22;102279.81;;;14.28;52.36
72055;BME280;59936;51.490;5.436;2023-04-02T14:39:55;102296.09;;;12.88;56.58
72055;BME280;59936;51.490;5.436;2023-04-02T14:42:34;102299.47;;;11.52;65.43
72055;BME280;59936;51.490;5.436;2023-04-02T14:45:38;102299.47;;;11.52;65.43
72055;BME280;59936;51.490;5.436;2023-04-02T14:50:50;102314.13;;;10.86;67.49
72055;BME280;59936;51.490;5.436;2023-04-02T14:53:29;102314.13;;;10.86;67.49
72055;BME280;59936;51.490;5.436;2023-04-02T14:55:58;102315.88;;;10.43;64.16
72055;BME280;59936;51.490;5.436;2023-04-02T14:58:34;102316.91;;;10.20;67.13
72055;BME280;59936;51.490;5.436;2023-04-02T15:01:22;102319.38;;;9.90;68.84
72055;BME280;59936;51.490;5.436;2023-04-02T15:04:07;102329.72;;;10.05;62.43
72055;BME280;59936;51.490;5.436;2023-04-02T15:06:43;102328.22;;;10.13;68.70
72055;BME280;59936;51.490;5.436;2023-04-02T15:09:36;102317.50;;;10.24;67.14
72055;BME280;59936;51.490;5.436;2023-04-02T15:12:06;102324.03;;;10.42;64.17
72055;BME280;59936;51.490;5.436;2023-04-02T15:14:44;102325.13;;;11.03;64.48
72055;BME280;59936;51.490;5.436;2023-04-02T15:17:11;102325.13;;;11.03;64.48
72055;BME280;59936;51.490;5.436;2023-04-02T15:19:37;102315.06;;;10.96;64.79
72055;BME280;59936;51.490;5.436;2023-04-02T15:24:53;102320.41;;;10.75;56.76
72055;BME280;59936;51.490;5.436;2023-04-02T15:27:32;102330.41;;;10.30;63.11
72055;BME280;59936;51.490;5.436;2023-04-02T15:32:48;102331.19;;;10.10;58.58
72055;BME280;59936;51.490;5.436;2023-04-02T15:35:38;102340.19;;;9.97;65.45
72055;BME280;59936;51.490;5.436;2023-04-02T15:38:50;102325.47;;;10.03;60.21
72055;BME280;59936;51.490;5.436;2023-04-02T15:41:14;102330.41;;;10.19;62.04
72055;BME280;59936;51.490;5.436;2023-04-02T15:43:56;102327.25;;;10.14;59.42